Time;durP1;ratioP1;P1;durP2;ratioP2;P2;SDS_P1;SDS_P2;PMS_P1;PMS_P2;Temp;Humidity;BMP_temperature;BMP_pressure;BME280_temperature;BME280_humidity;BME280_pressure;Samples;Min_cycle;Max_cycle;Signal;HPM_P1;HPM_P2
2022/02/23 00:02:10;;;;;;;23.40;18.27;;;;;;;1.71;100.00;92984.13;5011474;28;20058;-85
2022/02/23 00:04:37;;;;;;;24.90;17.95;;;;;;;1.66;100.00;92983.81;5011625;28;20062;-85
2022/02/23 00:07:04;;;;;;;21.67;16.65;;;;;;;1.65;100.00;92977.94;5011393;28;20049;-86
2022/02/23 00:09:31;;;;;;;22.27;17.27;;;;;;;1.67;100.00;92978.56;5011460;28;20057;-85
2022/02/23 00:11:58;;;;;;;22.52;17.83;;;;;;;1.67;100.00;92982.84;5011413;28;20045;-85
2022/02/23 00:14:25;;;;;;;22.73;17.77;;;;;;;1.61;100.00;92981.75;5011290;28;20108;-85
2022/02/23 00:16:52;;;;;;;22.25;17.48;;;;;;;1.56;100.00;92972.09;5011246;28;20057;-85
2022/02/23 00:19:20;;;;;;;24.08;17.85;;;;;;;1.55;100.00;92969.72;5011391;28;20056;-85
2022/02/23 00:21:47;;;;;;;23.70;17.70;;;;;;;1.64;100.00;92978.91;5011246;28;20042;-86
2022/02/23 00:24:14;;;;;;;22.55;18.30;;;;;;;1.63;100.00;92987.44;5011167;28;20057;-85
2022/02/23 00:26:41;;;;;;;22.98;18.73;;;;;;;1.64;100.00;92978.09;5011063;28;20046;-85
2022/02/23 00:29:08;;;;;;;22.65;17.83;;;;;;;1.69;100.00;92984.28;5011143;28;20172;-85
2022/02/23 00:31:35;;;;;;;23.88;17.73;;;;;;;1.71;100.00;92989.97;5010865;28;20498;-86
2022/02/23 00:34:02;;;;;;;22.42;16.50;;;;;;;1.69;100.00;92980.94;5011098;28;20487;-86
2022/02/23 00:36:30;;;;;;;21.67;16.67;;;;;;;1.80;100.00;92992.50;5011167;28;20104;-86
2022/02/23 00:38:57;;;;;;;24.65;18.33;;;;;;;1.95;100.00;92987.56;5010948;28;20045;-86
2022/02/23 00:41:23;;;;;;;21.80;16.70;;;;;;;1.87;100.00;92991.66;5010840;28;20049;-85
2022/02/23 00:43:50;;;;;;;22.42;17.58;;;;;;;1.80;100.00;92993.25;5011157;28;20050;-85
2022/02/23 00:46:17;;;;;;;22.48;17.05;;;;;;;1.85;100.00;92992.81;5011081;28;20057;-86
2022/02/23 00:48:45;;;;;;;21.83;16.95;;;;;;;1.72;100.00;92968.75;5010976;28;20053;-85
2022/02/23 00:51:12;;;;;;;23.05;17.55;;;;;;;1.82;100.00;92988.03;5011129;28;20054;-85
2022/02/23 00:53:40;;;;;;;23.20;17.20;;;;;;;1.83;100.00;92985.34;5010808;28;20522;-86
2022/02/23 00:56:07;;;;;;;20.50;15.98;;;;;;;1.94;100.00;92993.56;5010450;28;20042;-85
2022/02/23 00:58:34;;;;;;;22.88;17.30;;;;;;;1.92;100.00;92993.72;5010840;28;20042;-85
2022/02/23 01:01:01;;;;;;;23.58;17.38;;;;;;;1.93;100.00;92986.91;5010726;28;20108;-85
2022/02/23 01:03:28;;;;;;;20.52;16.80;;;;;;;2.00;100.00;92986.09;5011530;28;20046;-85
2022/02/23 01:05:54;;;;;;;22.83;17.75;;;;;;;1.95;100.00;92990.84;5014681;28;20593;-86
2022/02/23 01:08:21;;;;;;;22.45;16.73;;;;;;;1.95;100.00;92990.84;5014674;28;20045;-86
2022/02/23 01:10:50;;;;;;;22.23;16.23;;;;;;;1.84;100.00;92993.72;5014718;28;20054;-85
2022/02/23 01:13:18;;;;;;;24.58;17.65;;;;;;;1.95;100.00;92990.84;5014875;28;20050;-85
2022/02/23 01:15:45;;;;;;;21.63;16.45;;;;;;;1.81;100.00;92968.75;5014734;28;20100;-85
2022/02/23 01:18:12;;;;;;;22.70;16.83;;;;;;;1.82;100.00;92988.03;5014595;28;20050;-87
2022/02/23 01:20:39;;;;;;;21.80;16.90;;;;;;;1.68;100.00;92971.75;5014559;28;20049;-85
2022/02/23 01:23:06;;;;;;;20.63;15.90;;;;;;;1.82;100.00;92983.78;5014456;28;20387;-85
2022/02/23 01:25:34;;;;;;;22.95;16.95;;;;;;;1.81;100.00;92987.25;5014552;28;20108;-85
2022/02/23 01:28:04;;;;;;;21.92;16.98;;;;;;;1.82;100.00;92990.56;5014477;28;20061;-85
2022/02/23 01:30:31;;;;;;;21.17;16.38;;;;;;;1.78;100.00;92981.72;5014402;28;20049;-85
2022/02/23 01:32:58;;;;;;;22.52;16.25;;;;;;;1.83;100.00;92977.75;5014463;28;20100;-85
2022/02/23 01:35:26;;;;;;;24.48;17.02;;;;;;;1.73;100.00;92969.53;5014246;28;20077;-86
2022/02/23 01:37:53;;;;;;;22.38;15.90;;;;;;;1.78;100.00;92984.25;5014441;28;20109;-85
2022/02/23 01:40:20;;;;;;;21.13;16.30;;;;;;;1.69;100.00;92989.34;5014148;28;20045;-85
2022/02/23 01:42:48;;;;;;;20.63;16.00;;;;;;;1.72;100.00;92990.75;5014294;28;20414;-85
2022/02/23 01:45:17;;;;;;;20.88;16.10;;;;;;;1.73;100.00;92993.09;5014162;28;20438;-85
2022/02/23 01:47:44;;;;;;;19.80;15.60;;;;;;;1.64;100.00;92983.97;5014083;28;20050;-86
2022/02/23 01:50:11;;;;;;;22.27;16.50;;;;;;;1.76;100.00;92999.59;5013960;28;20127;-85
2022/02/23 01:52:38;;;;;;;20.90;15.73;;;;;;;1.80;100.00;93000.09;5014225;28;20815;-86
2022/02/23 01:55:07;;;;;;;19.48;15.18;;;;;;;1.79;100.00;92995.94;5013893;28;20054;-85
2022/02/23 01:57:34;;;;;;;20.88;15.80;;;;;;;1.82;100.00;93000.72;5014039;28;20456;-86
2022/02/23 02:00:01;;;;;;;20.48;15.38;;;;;;;1.76;100.00;92988.69;5013885;28;20505;-85
2022/02/23 02:02:29;;;;;;;22.73;16.75;;;;;;;1.88;100.00;93007.66;5014060;28;20100;-86
2022/02/23 02:04:56;;;;;;;21.48;16.58;;;;;;;1.82;100.00;93003.25;5013624;28;20398;-85
2022/02/23 02:07:23;;;;;;;19.50;15.73;;;;;;;1.86;100.00;93004.50;5013884;28;20049;-85
2022/02/23 02:09:50;;;;;;;20.73;15.90;;;;;;;1.93;100.00;93010.50;5013795;28;20046;-85
2022/02/23 02:12:17;;;;;;;18.98;14.57;;;;;;;2.02;100.00;93005.41;5013711;28;20045;-85
2022/02/23 02:14:44;;;;;;;20.52;15.73;;;;;;;1.90;100.00;93004.97;5013063;28;20053;-85
2022/02/23 02:17:10;;;;;;;20.95;15.85;;;;;;;1.95;100.00;93013.66;5013326;28;20046;-86
2022/02/23 02:19:39;;;;;;;19.55;15.07;;;;;;;1.86;100.00;93012.09;5013694;28;20050;-85
2022/02/23 02:22:08;;;;;;;19.90;14.45;;;;;;;1.84;100.00;93019.84;5013609;28;20053;-85
2022/02/23 02:24:37;;;;;;;18.67;13.93;;;;;;;1.86;100.00;93022.25;5013478;28;20057;-85
2022/02/23 02:27:07;;;;;;;21.55;16.38;;;;;;;1.96;100.00;93022.84;5013357;28;20049;-85
2022/02/23 02:29:35;;;;;;;17.85;13.88;;;;;;;1.90;100.00;93031.06;5013258;28;20050;-86
2022/02/23 02:32:03;;;;;;;19.20;15.15;;;;;;;1.89;100.00;93037.09;5018266;28;20417;-84
2022/02/23 02:34:30;;;;;;;19.25;13.65;;;;;;;1.96;100.00;93035.53;5032984;28;20046;-85
2022/02/23 02:36:59;;;;;;;22.17;15.52;;;;;;;1.78;100.00;93007.03;5033119;28;20391;-85
2022/02/23 02:39:27;;;;;;;20.25;15.30;;;;;;;2.09;100.00;93037.53;5032925;28;20103;-85
2022/02/23 02:41:54;;;;;;;30.05;19.52;;;;;;;2.04;100.00;93037.22;5032901;28;20050;-85
2022/02/23 02:44:40;;;;;;;23.85;16.15;;;;;;;1.97;100.00;93041.38;5032561;28;20053;-85
2022/02/23 02:47:07;;;;;;;17.80;13.70;;;;;;;1.94;100.00;93039.16;5032950;28;20046;-85
2022/02/23 02:49:34;;;;;;;34.03;21.42;;;;;;;1.99;100.00;93040.25;5032806;28;20448;-86
2022/02/23 02:52:00;;;;;;;17.95;14.00;;;;;;;2.03;100.00;93038.19;5032705;28;20072;-85
2022/02/23 02:54:29;;;;;;;77.90;36.58;;;;;;;2.02;100.00;93044.22;5032741;28;20115;-85
2022/02/23 02:56:57;;;;;;;94.60;40.10;;;;;;;2.03;100.00;93045.00;5032390;28;20049;-85
2022/02/23 02:59:24;;;;;;;90.53;38.53;;;;;;;2.14;100.00;93045.44;5032842;28;20104;-86
2022/02/23 03:01:51;;;;;;;168.45;62.53;;;;;;;2.22;100.00;93042.09;5032626;28;20057;-85
2022/02/23 03:04:18;;;;;;;57.60;34.83;;;;;;;2.07;100.00;93047.06;5032282;28;20045;-86
2022/02/23 03:06:45;;;;;;;41.33;28.92;;;;;;;2.16;100.00;93052.13;5032424;28;20053;-85
2022/02/23 03:09:12;;;;;;;36.70;26.00;;;;;;;2.09;100.00;93050.19;5032148;28;20508;-85
2022/02/23 03:11:42;;;;;;;87.65;54.33;;;;;;;2.08;100.00;93045.31;5032466;28;20128;-85
2022/02/23 03:14:09;;;;;;;21.45;14.48;;;;;;;2.14;100.00;93049.75;5032196;28;20502;-85
2022/02/23 03:16:36;;;;;;;20.95;16.08;;;;;;;2.00;100.00;93023.31;5032333;28;20046;-84
2022/02/23 03:19:05;;;;;;;43.13;29.13;;;;;;;2.19;100.00;93046.72;5032187;28;20441;-85
2022/02/23 03:21:32;;;;;;;34.90;25.08;;;;;;;2.24;100.00;93052.09;5032045;28;20065;-85
2022/02/23 03:23:59;;;;;;;26.10;17.92;;;;;;;2.22;100.00;93038.78;5031850;28;20052;-85
2022/02/23 03:26:26;;;;;;;22.90;16.75;;;;;;;2.29;100.00;93042.25;5029287;28;20053;-85
2022/02/23 03:28:54;;;;;;;21.48;16.20;;;;;;;2.38;100.00;93070.91;5012163;28;20062;-85
2022/02/23 03:31:21;;;;;;;21.55;15.52;;;;;;;2.43;100.00;93073.75;5012175;28;20053;-84
2022/02/23 03:33:48;;;;;;;20.25;15.13;;;;;;;2.36;100.00;93068.53;5012112;28;20058;-85
2022/02/23 03:36:17;;;;;;;20.02;14.98;;;;;;;2.18;100.00;93076.31;5012110;28;20105;-86
2022/02/23 03:38:46;;;;;;;18.73;14.52;;;;;;;2.01;100.00;93045.16;5011589;28;20045;-85
2022/02/23 03:41:13;;;;;;;18.92;15.13;;;;;;;2.23;100.00;93086.00;5012292;28;20136;-85
2022/02/23 03:43:41;;;;;;;17.17;12.88;;;;;;;2.14;100.00;93082.69;5011951;28;20057;-84
2022/02/23 03:46:09;;;;;;;16.95;13.20;;;;;;;2.15;100.00;93081.72;5011933;28;20046;-86
2022/02/23 03:48:36;;;;;;;17.15;13.93;;;;;;;2.23;100.00;93086.00;5012370;28;20418;-85
2022/02/23 03:51:03;;;;;;;19.92;15.00;;;;;;;2.30;100.00;93078.53;5011758;28;20465;-85
2022/02/23 03:53:30;;;;;;;22.13;13.77;;;;;;;2.38;100.00;93079.31;5011742;28;20057;-86
2022/02/23 03:55:57;;;;;;;19.33;14.50;;;;;;;2.46;100.00;93081.00;5011739;28;20050;-85
2022/02/23 03:58:24;;;;;;;18.67;14.25;;;;;;;2.58;100.00;93089.06;5011728;28;20104;-85
2022/02/23 04:00:51;;;;;;;17.88;13.38;;;;;;;2.52;100.00;93088.00;5011731;28;20042;-85
2022/02/23 04:03:20;;;;;;;15.20;12.05;;;;;;;1.94;100.00;93047.53;5011765;28;20054;-86
2022/02/23 04:05:46;;;;;;;17.45;13.40;;;;;;;2.40;100.00;93104.47;5011359;28;20073;-86
2022/02/23 04:08:13;;;;;;;19.95;14.90;;;;;;;2.16;100.00;93105.34;5011459;28;20049;-86
2022/02/23 04:10:40;;;;;;;20.70;15.68;;;;;;;2.12;100.00;93114.97;5011755;28;20433;-86
2022/02/23 04:13:07;;;;;;;21.15;15.93;;;;;;;2.05;100.00;93103.91;5011365;28;20054;-86
2022/02/23 04:15:34;;;;;;;16.38;13.48;;;;;;;1.98;100.00;93129.06;5011346;28;20046;-86
2022/02/23 04:18:02;;;;;;;20.45;15.52;;;;;;;1.99;100.00;93118.78;5011289;28;20048;-87
2022/02/23 04:20:30;;;;;;;16.42;13.48;;;;;;;1.80;100.00;93124.19;5011527;28;20053;-86
2022/02/23 04:22:57;;;;;;;50.33;29.98;;;;;;;1.97;100.00;93117.38;5011485;28;20136;-86
2022/02/23 04:25:24;;;;;;;19.00;15.00;;;;;;;1.87;100.00;93120.06;5011144;28;20410;-86
2022/02/23 04:27:51;;;;;;;17.05;13.57;;;;;;;1.73;100.00;93129.84;5011147;28;20108;-86
2022/02/23 04:30:17;;;;;;;18.45;13.57;;;;;;;1.71;100.00;93131.75;5011468;28;20053;-85
2022/02/23 04:32:44;;;;;;;17.95;14.45;;;;;;;1.73;100.00;93134.91;5011133;28;20046;-86
2022/02/23 04:35:13;;;;;;;18.15;14.00;;;;;;;1.68;100.00;93141.41;5011240;28;20049;-85
2022/02/23 04:37:41;;;;;;;19.08;14.82;;;;;;;1.64;100.00;93140.13;5011010;28;20046;-85
2022/02/23 04:40:09;;;;;;;16.73;13.50;;;;;;;1.66;100.00;93140.78;5011413;28;20057;-85
2022/02/23 04:42:36;;;;;;;17.48;13.50;;;;;;;1.61;100.00;93141.25;5010857;28;20058;-85
2022/02/23 04:45:03;;;;;;;17.25;13.75;;;;;;;1.55;100.00;93150.28;5010328;28;20061;-86
2022/02/23 04:47:31;;;;;;;17.10;14.10;;;;;;;1.52;100.00;93150.56;5011249;28;20046;-86
2022/02/23 04:49:58;;;;;;;21.17;15.85;;;;;;;1.57;100.00;93155.97;5010627;28;20054;-85
2022/02/23 04:52:25;;;;;;;15.68;12.93;;;;;;;1.40;100.00;93139.97;5011016;28;20053;-85
2022/02/23 04:54:54;;;;;;;21.30;14.40;;;;;;;1.52;100.00;93155.63;5011197;28;20061;-85
2022/02/23 04:57:22;;;;;;;22.20;16.83;;;;;;;1.54;100.00;93156.28;5011305;28;20073;-86
2022/02/23 04:59:49;;;;;;;20.90;15.93;;;;;;;1.53;100.00;93164.03;5010675;28;20057;-86
2022/02/23 05:02:15;;;;;;;20.27;14.25;;;;;;;1.58;100.00;93160.06;5011130;28;20058;-85
2022/02/23 05:04:42;;;;;;;18.42;14.93;;;;;;;1.50;100.00;93171.91;5011164;28;20100;-86
2022/02/23 05:07:09;;;;;;;19.50;15.60;;;;;;;1.11;100.00;93115.06;5011021;28;20100;-85
2022/02/23 05:09:37;;;;;;;26.05;17.33;;;;;;;1.49;100.00;93181.28;5010838;28;20133;-85
2022/02/23 05:12:07;;;;;;;17.70;14.02;;;;;;;1.52;100.00;93185.22;5010763;28;20454;-86
2022/02/23 05:14:35;;;;;;;17.13;13.93;;;;;;;1.52;100.00;93187.75;5010680;28;20136;-87
2022/02/23 05:17:01;;;;;;;18.02;14.05;;;;;;;1.54;100.00;93193.47;5010779;28;20053;-86
2022/02/23 05:19:29;;;;;;;18.42;14.90;;;;;;;1.39;100.00;93165.41;5010581;28;20509;-87
2022/02/23 05:21:56;;;;;;;16.23;13.60;;;;;;;1.48;100.00;93184.72;5010676;28;20536;-85
2022/02/23 05:24:23;;;;;;;17.20;13.93;;;;;;;1.58;100.00;93202.34;5010892;28;20086;-86
2022/02/23 05:26:50;;;;;;;19.10;14.57;;;;;;;1.56;100.00;93209.28;5010650;28;20049;-86
2022/02/23 05:29:18;;;;;;;18.80;14.32;;;;;;;1.58;100.00;93209.94;5010503;28;20085;-86
2022/02/23 05:31:48;;;;;;;17.52;12.95;;;;;;;1.60;100.00;93215.63;5010755;28;20128;-86
2022/02/23 05:34:15;;;;;;;19.58;15.02;;;;;;;1.51;100.00;93208.94;5010756;28;20050;-85
2022/02/23 05:36:42;;;;;;;33.53;19.10;;;;;;;1.51;100.00;93209.75;5010533;28;20050;-87
2022/02/23 05:39:09;;;;;;;20.33;14.00;;;;;;;1.60;100.00;93231.63;5010360;28;20494;-88
2022/02/23 05:41:37;;;;;;;19.75;13.82;;;;;;;1.62;100.00;93231.44;5010371;28;20434;-86
2022/02/23 05:44:04;;;;;;;17.05;12.50;;;;;;;1.56;100.00;93232.88;5010335;28;20045;-86
2022/02/23 05:46:33;;;;;;;18.08;14.27;;;;;;;1.51;100.00;93235.06;5010392;28;20054;-86
2022/02/23 05:49:00;;;;;;;29.30;20.50;;;;;;;1.43;100.00;93225.69;5010492;28;20108;-85
2022/02/23 05:51:28;;;;;;;31.67;23.60;;;;;;;1.46;100.00;93245.66;5013936;28;20490;-86
2022/02/23 05:53:58;;;;;;;17.88;13.57;;;;;;;1.53;100.00;93245.03;5013759;28;20050;-86
2022/02/23 05:56:25;;;;;;;18.38;13.98;;;;;;;1.48;100.00;93242.94;5014078;28;20046;-87
2022/02/23 05:58:52;;;;;;;17.75;14.38;;;;;;;1.57;100.00;93253.91;5013985;28;20089;-86
2022/02/23 06:01:19;;;;;;;16.85;14.25;;;;;;;1.58;100.00;93260.56;5013888;28;20050;-86
2022/02/23 06:03:47;;;;;;;18.67;13.55;;;;;;;1.61;100.00;93257.72;5014265;28;20050;-86
2022/02/23 06:06:15;;;;;;;18.48;13.65;;;;;;;1.56;100.00;93260.72;5013755;28;20049;-86
2022/02/23 06:08:41;;;;;;;16.45;12.88;;;;;;;1.37;100.00;93244.03;5013683;28;20490;-86
2022/02/23 06:11:09;;;;;;;16.08;13.43;;;;;;;1.55;100.00;93266.72;5013804;28;20038;-85
2022/02/23 06:13:36;;;;;;;17.55;13.07;;;;;;;1.52;100.00;93271.31;5013769;28;20409;-85
2022/02/23 06:16:03;;;;;;;17.73;14.05;;;;;;;1.46;100.00;93270.16;5013641;28;20061;-86
2022/02/23 06:18:30;;;;;;;22.45;15.50;;;;;;;1.53;100.00;93280.47;5013544;28;20494;-86
2022/02/23 06:20:58;;;;;;;19.75;14.68;;;;;;;1.47;100.00;93289.47;5013387;28;20045;-85
2022/02/23 06:23:26;;;;;;;19.15;13.63;;;;;;;1.39;100.00;93297.81;5014135;28;20077;-85
2022/02/23 06:25:54;;;;;;;16.15;12.05;;;;;;;1.39;100.00;93297.03;5013368;28;20054;-86
2022/02/23 06:28:21;;;;;;;20.30;13.93;;;;;;;1.37;100.00;93297.19;5013270;28;20073;-86
2022/02/23 06:30:48;;;;;;;16.98;12.20;;;;;;;1.40;100.00;93301.94;5013329;28;20132;-87
2022/02/23 06:33:18;;;;;;;19.45;14.43;;;;;;;1.38;100.00;93308.88;5013068;28;20042;-86
2022/02/23 06:35:45;;;;;;;28.30;16.90;;;;;;;1.46;100.00;93313.19;5012813;28;20046;-86
2022/02/23 06:38:13;;;;;;;23.65;17.48;;;;;;;1.44;100.00;93302.44;5012968;28;20049;-86
2022/02/23 06:40:40;;;;;;;33.45;23.83;;;;;;;1.37;100.00;93309.03;5013564;28;20479;-87
2022/02/23 06:43:07;;;;;;;67.50;43.22;;;;;;;1.36;100.00;93287.19;5013364;28;20111;-86
2022/02/23 06:45:34;;;;;;;29.38;19.15;;;;;;;1.52;100.00;93312.59;5012971;28;20057;-86
2022/02/23 06:48:01;;;;;;;27.08;17.75;;;;;;;1.55;100.00;93321.63;5012856;28;20046;-85
2022/02/23 06:50:28;;;;;;;25.13;17.02;;;;;;;1.60;100.00;93325.31;5013141;28;20054;-85
2022/02/23 06:52:56;;;;;;;21.45;14.90;;;;;;;1.53;100.00;93321.00;5012966;28;20050;-85
2022/02/23 06:55:25;;;;;;;30.98;19.65;;;;;;;1.57;100.00;93323.06;5012914;28;20100;-86
2022/02/23 06:57:52;;;;;;;17.60;12.63;;;;;;;1.27;100.00;93294.75;5012693;28;20049;-86
2022/02/23 07:00:19;;;;;;;20.27;14.35;;;;;;;1.51;100.00;93330.47;5012764;28;20057;-86
2022/02/23 07:02:46;;;;;;;21.25;14.18;;;;;;;1.63;100.00;93324.19;5012434;28;20133;-86
2022/02/23 07:05:15;;;;;;;28.23;18.98;;;;;;;1.53;100.00;93323.53;5012775;28;20075;-89
2022/02/23 07:07:42;;;;;;;16.77;12.52;;;;;;;1.42;100.00;93334.69;5012871;28;20046;-86
2022/02/23 07:10:19;;;;;;;19.88;14.13;;;;;;;1.49;100.00;93327.28;5012707;28;20100;-87
2022/02/23 07:12:48;;;;;;;21.50;13.90;;;;;;;1.62;100.00;93320.06;5012502;28;20054;-86
2022/02/23 07:15:14;;;;;;;17.52;13.18;;;;;;;1.81;100.00;93315.72;5012358;28;20049;-87
2022/02/23 07:17:42;;;;;;;15.73;11.98;;;;;;;1.67;100.00;93317.88;5012397;28;20049;-86
2022/02/23 07:20:12;;;;;;;15.10;11.02;;;;;;;1.58;100.00;93319.56;5012362;28;20096;-87
2022/02/23 07:22:40;;;;;;;17.67;12.25;;;;;;;1.65;100.00;93324.03;5012390;28;20129;-87
2022/02/23 07:25:11;;;;;;;14.30;10.95;;;;;;;1.50;100.00;93323.81;5012295;28;20112;-86
2022/02/23 07:27:38;;;;;;;14.55;11.38;;;;;;;1.53;100.00;93321.00;5012184;28;20060;-86
2022/02/23 07:30:09;;;;;;;15.18;11.70;;;;;;;1.60;100.00;93324.50;5012562;28;20046;-87
2022/02/23 07:32:38;;;;;;;15.38;12.35;;;;;;;1.60;100.00;93324.50;5012083;28;20073;-87
2022/02/23 07:35:10;;;;;;;19.77;13.85;;;;;;;1.83;100.00;93321.41;5012254;28;20054;-87
2022/02/23 07:37:38;;;;;;;21.13;13.65;;;;;;;1.89;100.00;93320.81;5012555;28;20088;-87
2022/02/23 07:40:08;;;;;;;16.38;12.63;;;;;;;1.96;100.00;93313.38;5011941;28;20052;-86
2022/02/23 07:42:35;;;;;;;20.20;13.38;;;;;;;2.23;100.00;93326.75;5012219;28;20045;-86
2022/02/23 07:45:02;;;;;;;35.28;18.80;;;;;;;2.22;100.00;93331.03;5012086;28;20128;-86
2022/02/23 07:47:30;;;;;;;19.95;13.07;;;;;;;2.34;100.00;93333.25;5011901;28;20046;-86
2022/02/23 07:49:57;;;;;;;22.50;14.60;;;;;;;2.48;100.00;93331.84;5011868;28;20553;-86
2022/02/23 07:52:23;;;;;;;22.80;13.90;;;;;;;2.52;100.00;93338.22;5011806;28;20053;-87
2022/02/23 07:54:50;;;;;;;20.70;13.05;;;;;;;2.69;100.00;93353.44;5011577;28;20100;-86
2022/02/23 08:00:01;;;;;;;32.53;23.58;;;;;;;2.97;100.00;93348.88;5011729;28;20052;-86
2022/02/23 08:02:32;;;;;;;25.35;19.58;;;;;;;2.96;100.00;93347.25;5011761;28;20083;-86
2022/02/23 08:04:59;;;;;;;33.50;23.02;;;;;;;2.84;100.00;93346.00;5011646;28;20064;-88
2022/02/23 08:07:27;;;;;;;15.57;10.55;;;;;;;2.68;100.00;93355.19;5011550;28;20061;-86
2022/02/23 08:09:56;;;;;;;13.50;9.60;;;;;;;2.77;100.00;93345.81;5011439;28;20045;-85
2022/02/23 08:12:23;;;;;;;100.57;62.88;;;;;;;2.86;100.00;93349.97;5011182;28;20046;-86
2022/02/23 08:14:53;;;;;;;22.95;16.25;;;;;;;2.79;100.00;93349.78;5011579;28;20168;-87
2022/02/23 08:20:10;;;;;;;12.70;9.02;;;;;;;2.89;100.00;93347.13;5011540;28;20107;-86
2022/02/23 08:22:37;;;;;;;33.70;25.38;;;;;;;2.82;100.00;93297.94;5011441;28;20053;-86
2022/02/23 08:25:06;;;;;;;15.52;10.50;;;;;;;3.15;100.00;93347.91;5011380;28;20045;-87
2022/02/23 08:27:36;;;;;;;29.10;20.40;;;;;;;3.11;100.00;93329.66;5011190;28;20417;-86
2022/02/23 08:30:05;;;;;;;23.98;14.48;;;;;;;3.24;100.00;93348.69;5011131;28;20050;-87
2022/02/23 08:32:32;;;;;;;18.02;11.63;;;;;;;3.35;100.00;93350.88;5011166;28;20056;-86
2022/02/23 08:34:59;;;;;;;16.38;10.85;;;;;;;3.34;100.00;93352.63;5011503;28;20046;-86
2022/02/23 08:37:27;;;;;;;15.10;10.55;;;;;;;3.27;100.00;93363.56;5011014;28;20054;-85
2022/02/23 08:39:54;;;;;;;17.63;13.05;;;;;;;3.33;100.00;93350.22;5011429;28;20479;-86
2022/02/23 08:42:21;;;;;;;11.73;8.10;;;;;;;3.34;100.00;93349.31;5010998;28;20046;-85
2022/02/23 08:44:48;;;;;;;12.48;8.60;;;;;;;3.38;100.00;93349.75;5010877;28;20541;-85
2022/02/23 08:47:15;;;;;;;12.68;7.63;;;;;;;3.51;100.00;93347.50;5011208;28;20046;-86
2022/02/23 08:49:42;;;;;;;12.88;9.52;;;;;;;3.70;100.00;93335.41;5011238;28;20180;-86
2022/02/23 08:52:09;;;;;;;13.65;9.63;;;;;;;3.97;100.00;93351.16;5010961;28;20052;-86
2022/02/23 08:54:38;;;;;;;15.20;10.05;;;;;;;4.02;100.00;93338.75;5010919;28;20461;-87
2022/02/23 08:57:06;;;;;;;13.82;7.85;;;;;;;3.95;100.00;93363.25;5010726;28;20395;-87
2022/02/23 08:59:34;;;;;;;12.98;9.85;;;;;;;4.28;100.00;93358.84;5010762;28;20046;-85
2022/02/23 09:02:02;;;;;;;13.68;9.40;;;;;;;4.13;100.00;93356.19;5010896;28;20414;-85
2022/02/23 09:04:29;;;;;;;11.60;8.82;;;;;;;4.11;100.00;93362.38;5011016;28;20049;-86
2022/02/23 09:06:56;;;;;;;9.18;6.80;;;;;;;4.07;100.00;93368.78;5010904;28;20054;-85
2022/02/23 09:09:24;;;;;;;12.90;8.77;;;;;;;3.90;100.00;93365.50;5010874;28;20057;-85
2022/02/23 09:11:53;;;;;;;9.77;7.65;;;;;;;3.73;100.00;93360.47;5010661;28;20085;-84
2022/02/23 09:14:20;;;;;;;11.77;8.27;;;;;;;3.96;100.00;93369.91;5010967;28;20088;-86
2022/02/23 09:16:47;;;;;;;29.50;16.20;;;;;;;4.14;100.00;93370.50;5010845;28;20049;-85
2022/02/23 09:19:14;;;;;;;33.97;19.10;;;;;;;4.06;100.00;93367.97;5010881;28;20065;-86
2022/02/23 09:21:41;;;;;;;43.53;25.58;;;;;;;4.03;100.00;93372.59;5010673;28;20137;-85
2022/02/23 09:24:09;;;;;;;15.95;11.23;;;;;;;3.97;100.00;93369.75;5010701;28;20410;-86
2022/02/23 09:26:36;;;;;;;15.35;9.98;;;;;;;3.98;100.00;93368.81;5014570;28;20056;-85
2022/02/23 09:29:05;;;;;;;11.75;7.85;;;;;;;3.76;100.00;93344.91;5014891;28;20516;-85
2022/02/23 09:31:32;;;;;;;11.63;8.45;;;;;;;3.94;100.00;93385.31;5014672;28;20457;-85
2022/02/23 09:33:59;;;;;;;18.25;10.50;;;;;;;3.83;100.00;93362.81;5014437;28;20153;-87
2022/02/23 09:36:26;;;;;;;27.05;14.60;;;;;;;3.99;100.00;93382.31;5014313;28;20096;-85
2022/02/23 09:38:53;;;;;;;13.50;8.48;;;;;;;3.89;100.00;93385.03;5014255;28;20054;-86
2022/02/23 09:41:21;;;;;;;11.80;7.97;;;;;;;3.91;100.00;93383.13;5014210;28;20046;-87
2022/02/23 09:43:52;;;;;;;9.57;7.00;;;;;;;3.89;100.00;93377.41;5014401;28;20453;-86
2022/02/23 09:46:22;;;;;;;11.77;9.57;;;;;;;4.12;100.00;93386.88;5014310;28;20120;-87
2022/02/23 09:48:49;;;;;;;17.23;10.52;;;;;;;4.11;100.00;93372.56;5014249;28;20046;-85
2022/02/23 09:51:16;;;;;;;9.90;6.82;;;;;;;4.21;100.00;93390.16;5013965;28;20490;-86
2022/02/23 09:53:45;;;;;;;26.73;14.27;;;;;;;4.36;100.00;93378.31;5014154;28;20090;-85
2022/02/23 09:56:14;;;;;;;27.80;14.35;;;;;;;4.21;100.00;93398.56;5014278;28;20048;-88
2022/02/23 09:58:41;;;;;;;20.95;11.85;;;;;;;4.00;100.00;93371.19;5013885;28;20054;-85
2022/02/23 10:01:09;;;;;;;31.20;17.23;;;;;;;4.33;100.00;93388.84;5013703;28;20494;-85
2022/02/23 10:03:38;;;;;;;10.77;7.90;;;;;;;4.30;100.00;93399.31;5013864;28;20502;-85
2022/02/23 10:06:05;;;;;;;14.80;9.23;;;;;;;4.48;100.00;93388.13;5014255;28;20129;-85
2022/02/23 10:08:35;;;;;;;16.02;9.82;;;;;;;4.50;100.00;93391.28;5013782;28;20556;-85
2022/02/23 10:11:02;;;;;;;10.52;8.02;;;;;;;4.61;100.00;93390.91;5014122;28;20057;-86
2022/02/23 10:13:29;;;;;;;9.63;6.30;;;;;;;4.60;100.00;93391.88;5013986;28;20056;-86
2022/02/23 10:15:58;;;;;;;9.45;5.93;;;;;;;4.24;100.00;93382.19;5013765;28;20054;-86
2022/02/23 10:18:28;;;;;;;14.82;9.18;;;;;;;4.46;100.00;93369.69;5013556;28;20058;-86
2022/02/23 10:20:57;;;;;;;44.15;22.75;;;;;;;4.66;100.00;93381.03;5013873;28;20054;-85
2022/02/23 10:23:26;;;;;;;25.48;15.73;;;;;;;4.71;100.00;93379.75;5013688;28;20057;-86
2022/02/23 10:25:56;;;;;;;15.73;11.07;;;;;;;4.73;100.00;93391.34;5013392;28;20053;-86
2022/02/23 10:28:26;;;;;;;9.88;6.95;;;;;;;4.60;100.00;93384.25;5013447;28;20081;-86
2022/02/23 10:30:55;;;;;;;11.00;7.32;;;;;;;4.55;100.00;93377.09;5013426;28;20107;-86
2022/02/23 10:33:24;;;;;;;9.18;6.40;;;;;;;4.61;100.00;93379.94;5013464;28;20054;-85
2022/02/23 10:35:52;;;;;;;12.70;7.95;;;;;;;4.92;100.00;93390.06;5012782;28;20498;-85
2022/02/23 10:38:27;;;;;;;11.20;7.93;;;;;;;4.95;100.00;93383.84;5013529;28;20116;-86
2022/02/23 10:40:54;;;;;;;8.02;6.00;;;;;;;5.25;100.00;93375.50;5013233;28;20051;-84
2022/02/23 10:43:25;;;;;;;12.63;8.18;;;;;;;5.28;100.00;93390.44;5013165;28;20061;-86
2022/02/23 10:45:53;;;;;;;13.75;9.05;;;;;;;5.32;100.00;93345.84;5013039;28;20505;-85
2022/02/23 10:48:35;;;;;;;9.73;6.90;;;;;;;5.58;100.00;93373.47;5013201;28;20045;-85
2022/02/23 10:51:02;;;;;;;11.13;6.65;;;;;;;5.70;100.00;93362.84;5013100;28;20050;-85
2022/02/23 10:53:33;;;;;;;8.82;5.43;;;;;;;5.53;98.52;93378.28;5012920;28;20144;-85
2022/02/23 10:56:01;;;;;;;8.70;5.68;;;;;;;5.06;100.00;93370.72;5012836;28;20462;-85
2022/02/23 10:58:29;;;;;;;8.40;5.63;;;;;;;5.39;97.58;93382.41;5012946;28;20077;-86
2022/02/23 11:01:04;;;;;;;9.52;5.50;;;;;;;5.02;97.87;93381.41;5013015;28;20050;-85
2022/02/23 11:03:31;;;;;;;10.25;7.15;;;;;;;5.16;100.00;93372.22;5012778;28;20061;-84
2022/02/23 11:05:58;;;;;;;11.45;6.68;;;;;;;4.89;100.00;93381.97;5013043;28;20129;-85
2022/02/23 11:08:27;;;;;;;323.38;150.40;;;;;;;5.12;100.00;93374.34;5012556;28;20050;-84
2022/02/23 11:10:57;;;;;;;18.10;9.30;;;;;;;5.07;100.00;93367.22;5012520;28;20531;-85
2022/02/23 11:13:24;;;;;;;9.27;6.68;;;;;;;5.07;100.00;93354.50;5012741;28;20115;-85
2022/02/23 11:15:52;;;;;;;14.07;8.32;;;;;;;5.05;97.51;93386.94;5012569;28;20054;-85
2022/02/23 11:18:23;;;;;;;12.88;6.40;;;;;;;5.03;97.77;93390.63;5012486;28;20054;-85
2022/02/23 11:20:51;;;;;;;9.73;6.55;;;;;;;5.15;100.00;93384.19;5012133;28;20100;-87
2022/02/23 11:23:22;;;;;;;8.07;5.05;;;;;;;5.11;96.26;93382.13;5012609;28;20119;-85
2022/02/23 11:25:52;;;;;;;7.88;4.90;;;;;;;5.18;99.74;93383.84;5012362;28;20575;-84
2022/02/23 11:28:25;;;;;;;7.82;5.50;;;;;;;5.18;99.91;93378.75;5012651;28;20054;-84